ADDS METAR Data INFO
IDs: Format: Raw Decoded Include TAF

Data at: 0121 UTC 20 Feb 2018

METAR for:KGNV (Gainesville Rgnl, FL, US)
Text:KGNV 200053Z AUTO 10008KT 10SM CLR 22/17 A3031 RMK AO2 SLP261 T02220167
Temperature: 22.2°C ( 72°F)
Dewpoint: 16.7°C ( 62°F) [RH = 71%]
Pressure (altimeter):30.31 inches Hg (1026.5 mb) [Sea level pressure: 1026.1 mb]
Winds:from the E (100 degrees) at 9 MPH (8 knots; 4.1 m/s)
Visibility:10 or more sm (16+ km)
Ceiling:at least 12,000 feet AGL
Clouds:sky clear below 12,000 feet AGL
QC Flag:automated observation with no human augmentation